• Join FlightAware (Why Join?)
  • Login
  • US Flag 
06:59AM EDT


 

Airport Tracker/Info


-or-


 

Live Flight TrackerFlight Track Log ✈ RPA4911 ✈ 10-Jul-2013 ✈ KALB - KEWR

Flight Track Log - Related Links

Times and Time Zones

All times are in EDT time to prevent confusion due to time zone crossing. See the RPA4911 flight status page for this flight to view local times or setup timezone preferences in your user account.

Time Position Orientation Groundspeed Altitude Reporting Facility
EDT Latitude Longitude Course Direction KTS MPH feet Rate Location/Type
06:04AM 42.7319 -73.8081 200° South 152 175 1,400  Level Boston Center
06:05AM 42.6817 -73.8325 200° South 187 215 4,300 6,540 Climbing Boston Center
06:06AM 42.6417 -73.8486 197° South 224 258 14,000 2,820 Climbing Boston Center
06:07AM 42.5853 -73.8725 197° South 217 250 9,400 -1,800 Descending Boston Center
06:08AM 42.2864 -73.8866 197° South  Level Estimated
06:08AM 42.5433 -73.8914 198° South 217 250 10,500  Level Boston Center
06:09AM 42.1939 -73.9033 200° South  Level Estimated
06:09AM 42.4553 -73.9314 199° South 250 288 12,300  Level Boston Center
06:10AM 42.3819 -73.9664 199° South 275 316 13,700 840 Climbing Boston Center
06:11AM 42.3064 -74.0008 199° South 288 331 14,000 120 Climbing Boston Center
06:12AM 42.2286 -74.0356 198° South 294 338 14,000  Level Boston Center
06:13AM 42.1575 -74.0672 198° South 294 338 14,000 -780 Level Boston Center
06:14AM 42.0714 -74.1014 196° South 294 338 12,500 -1,500 Descending Boston Center
06:15AM 41.9981 -74.1386 201° Southwest 289 333 11,100 -1,200 Descending Boston Center
06:16AM 41.9308 -74.1647 196° South 289 333 10,100 -540 Descending Boston Center
06:17AM 41.8489 -74.2042 200° South 289 333 10,100  Level Boston Center
06:18AM 41.7797 -74.2331 197° South 289 333 10,100  Level Boston Center
06:19AM 41.6978 -74.2667 197° South 289 333 10,100  Level Boston Center
06:20AM 41.6308 -74.2953 198° South 289 333 10,100 -480 Level Boston Center
06:21AM 41.5531 -74.3319 199° South 284 327 9,200 -1,020 Descending Boston Center
06:23AM 41.4167 -74.3833 196° South 258 297 7,100 -720 Descending New York TRACON
06:24AM 41.3500 -74.3833 180° South 274 315 7,100  Level New York TRACON
06:25AM 41.2833 -74.3333 151° Southeast 271 312 7,100 -720 Level New York TRACON
06:26AM 41.2167 -74.2833 151° Southeast 264 304 5,700 -1,320 Descending New York TRACON
06:27AM 41.1667 -74.2667 166° South 262 302 4,600 -960 Descending New York TRACON
06:27AM 41.1000 -74.2167 151° Southeast 258 297 4,100 -300 Descending New York TRACON
06:29AM 41.0333 -74.1833 159° South 259 298 4,100  Level New York TRACON
06:30AM 40.9667 -74.1333 150° Southeast 255 293 4,100  Level New York TRACON
06:30AM 40.9000 -74.1000 159° South 255 293 4,100 -660 Level New York TRACON
06:31AM 40.8333 -74.0833 169° South 245 282 2,900 -1,200 Descending New York TRACON